createdAt,value
2019-05-22T00:04:18.358Z,94461.20
2019-05-22T00:09:24.692Z,94460.09
2019-05-22T00:14:29.526Z,94447.42
2019-05-22T00:19:36.822Z,94447.39
2019-05-22T00:24:44.394Z,94443.92
2019-05-22T00:29:51.306Z,94449.62
2019-05-22T00:34:56.906Z,94470.19
2019-05-22T00:40:04.166Z,94470.89
2019-05-22T00:45:13.041Z,94469.58
2019-05-22T00:50:22.328Z,94476.11
2019-05-22T00:55:33.968Z,94477.14
2019-05-22T01:00:49.732Z,94478.38
2019-05-22T01:05:55.628Z,94478.33
2019-05-22T01:11:01.226Z,94474.31
2019-05-22T01:16:07.573Z,94469.15
2019-05-22T01:21:15.058Z,94476.99
2019-05-22T01:26:21.574Z,94483.67
2019-05-22T01:31:27.887Z,94481.86
2019-05-22T01:36:35.230Z,94480.20
2019-05-22T01:41:41.851Z,94488.24
2019-05-22T01:46:46.417Z,94489.20
2019-05-22T01:51:51.509Z,94491.85
2019-05-22T01:56:57.787Z,94496.67
2019-05-22T02:02:04.525Z,94471.05
2019-05-22T02:07:10.029Z,94486.86
2019-05-22T02:12:28.111Z,94490.19
2019-05-22T02:17:35.761Z,94490.00
2019-05-22T02:22:40.940Z,94492.38
2019-05-22T02:27:47.541Z,94491.68
2019-05-22T02:32:53.077Z,94488.20
2019-05-22T02:37:58.862Z,94485.73
2019-05-22T02:43:03.856Z,94477.73
2019-05-22T02:48:09.563Z,94478.71
2019-05-22T02:53:15.074Z,94481.53
2019-05-22T02:58:21.250Z,94486.88
2019-05-22T03:03:26.991Z,94489.55
2019-05-22T03:08:54.671Z,94485.90
2019-05-22T03:14:03.664Z,94486.05
2019-05-22T03:19:10.622Z,94492.72
2019-05-22T03:24:16.215Z,94501.03
2019-05-22T03:29:24.141Z,94499.37
2019-05-22T03:34:29.160Z,94499.55
2019-05-22T03:39:34.907Z,94502.51
2019-05-22T03:44:41.049Z,94499.83
2019-05-22T03:49:46.779Z,94508.30
2019-05-22T03:54:52.524Z,94513.71
2019-05-22T03:59:57.882Z,94521.64
2019-05-22T04:05:03.270Z,94520.20
2019-05-22T04:10:10.479Z,94528.16
2019-05-22T04:15:15.822Z,94523.23
2019-05-22T04:20:22.015Z,94533.45
2019-05-22T04:25:26.956Z,94533.45
2019-05-22T04:30:32.394Z,94521.42
2019-05-22T04:35:40.355Z,94516.13
2019-05-22T04:40:48.954Z,94524.77
2019-05-22T04:45:54.198Z,94522.81
2019-05-22T04:51:02.240Z,94530.63
2019-05-22T04:56:07.347Z,94529.06
2019-05-22T05:01:12.175Z,94520.84
2019-05-22T05:06:18.359Z,94522.45
2019-05-22T05:11:23.003Z,94527.76
2019-05-22T05:16:27.680Z,94517.19
2019-05-22T05:21:32.489Z,94505.33
2019-05-22T05:26:37.694Z,94514.28
2019-05-22T05:31:42.457Z,94518.84
2019-05-22T05:36:47.753Z,94518.61
2019-05-22T05:41:53.001Z,94524.16
2019-05-22T05:46:57.829Z,94526.20
2019-05-22T05:52:03.897Z,94538.30
2019-05-22T05:57:38.665Z,94541.75
2019-05-22T06:02:56.059Z,94552.28
2019-05-22T06:07:49.940Z,94549.78
2019-05-22T06:12:54.725Z,94545.27
2019-05-22T06:18:28.076Z,94556.69
2019-05-22T06:23:42.472Z,94565.42
2019-05-22T06:28:47.994Z,94560.45
2019-05-22T06:33:52.676Z,94552.27
2019-05-22T06:39:00.941Z,94556.64
2019-05-22T06:44:36.923Z,94550.29
2019-05-22T06:49:43.972Z,94551.08
2019-05-22T06:54:49.017Z,94550.63
2019-05-22T07:00:11.301Z,94549.02
2019-05-22T07:05:00.632Z,94540.64
2019-05-22T07:10:06.981Z,94538.30
2019-05-22T07:15:23.189Z,94523.89
2019-05-22T07:20:31.113Z,94509.17
2019-05-22T07:25:37.581Z,94509.98
2019-05-22T07:30:42.347Z,94498.86
2019-05-22T07:36:07.745Z,94497.36
2019-05-22T07:40:54.089Z,94503.31
2019-05-22T07:45:58.978Z,94496.73
2019-05-22T07:51:04.050Z,94491.94
2019-05-22T07:56:10.306Z,94500.34
2019-05-22T08:01:18.201Z,94518.19
2019-05-22T08:06:23.083Z,94503.83
2019-05-22T08:11:28.032Z,94492.16
2019-05-22T08:16:33.842Z,94485.33
2019-05-22T08:21:39.173Z,94496.55
2019-05-22T08:26:53.811Z,94492.73
2019-05-22T08:31:50.899Z,94502.84
2019-05-22T08:36:55.667Z,94497.32
2019-05-22T08:42:02.127Z,94501.00
2019-05-22T08:47:08.354Z,94491.03
2019-05-22T08:52:22.905Z,94496.05
2019-05-22T08:57:21.088Z,94487.77
2019-05-22T09:02:25.982Z,94492.16
2019-05-22T09:07:31.719Z,94493.91
2019-05-22T09:12:36.625Z,94494.03
2019-05-22T09:17:41.177Z,94488.78
2019-05-22T09:22:46.711Z,94477.22
2019-05-22T09:27:52.101Z,94486.69
2019-05-22T09:32:58.214Z,94479.33
2019-05-22T09:38:02.966Z,94471.33
2019-05-22T09:43:07.869Z,94466.74
2019-05-22T09:48:13.028Z,94471.86
2019-05-22T09:53:18.127Z,94465.92
2019-05-22T09:58:23.282Z,94469.55
2019-05-22T10:03:28.273Z,94465.52
2019-05-22T10:08:33.673Z,94459.31
2019-05-22T10:13:38.353Z,94457.18
2019-05-22T10:18:42.978Z,94455.45
2019-05-22T10:23:47.880Z,94443.17
2019-05-22T10:28:53.237Z,94450.16
2019-05-22T10:33:57.937Z,94443.53
2019-05-22T10:39:03.584Z,94458.14
2019-05-22T10:44:08.587Z,94457.96
2019-05-22T10:49:13.660Z,94459.95
2019-05-22T10:54:18.367Z,94441.32
2019-05-22T10:59:23.511Z,94452.15
2019-05-22T11:04:29.760Z,94444.94
2019-05-22T11:09:35.673Z,94444.40
2019-05-22T11:14:40.632Z,94446.14
2019-05-22T11:19:45.423Z,94444.14
2019-05-22T11:24:50.158Z,94433.16
2019-05-22T11:29:54.915Z,94413.66
2019-05-22T11:34:59.586Z,94415.84
2019-05-22T11:40:08.859Z,94405.24
2019-05-22T11:45:16.325Z,94405.27
2019-05-22T11:50:23.714Z,94418.45
2019-05-22T11:55:44.292Z,94416.10
2019-05-22T12:00:35.991Z,94417.99
2019-05-22T12:05:40.774Z,94403.33
2019-05-22T12:10:45.843Z,94395.03
2019-05-22T12:15:50.673Z,94390.39
2019-05-22T12:20:57.249Z,94393.33
2019-05-22T12:26:01.880Z,94380.48
2019-05-22T12:31:07.427Z,94389.57
2019-05-22T12:36:14.162Z,94383.78
2019-05-22T12:41:20.976Z,94381.30
2019-05-22T12:46:27.262Z,94372.99
2019-05-22T12:51:32.991Z,94351.66
2019-05-22T12:56:37.910Z,94341.87
2019-05-22T13:01:46.655Z,94351.81
2019-05-22T13:06:52.235Z,94343.17
2019-05-22T13:11:59.410Z,94348.05
2019-05-22T13:17:06.361Z,94346.05
2019-05-22T13:22:16.540Z,94348.25
2019-05-22T13:27:22.761Z,94337.59
2019-05-22T13:32:29.256Z,94339.41
2019-05-22T13:37:34.277Z,94343.83
2019-05-22T13:42:40.379Z,94336.09
2019-05-22T13:47:45.036Z,94325.63
2019-05-22T13:52:50.281Z,94331.57
2019-05-22T13:57:55.440Z,94324.68
2019-05-22T14:03:00.444Z,94314.08
2019-05-22T14:08:08.194Z,94303.01
2019-05-22T14:13:14.575Z,94303.10
2019-05-22T14:18:19.613Z,94295.97
2019-05-22T14:23:24.341Z,94285.41
2019-05-22T14:28:30.727Z,94279.75
2019-05-22T14:33:39.777Z,94275.13
2019-05-22T14:38:43.215Z,94272.89
2019-05-22T14:43:48.003Z,94270.02
2019-05-22T14:48:52.735Z,94276.28
2019-05-22T14:53:58.664Z,94275.69
2019-05-22T14:59:04.794Z,94272.77
2019-05-22T15:04:09.535Z,94256.58
2019-05-22T15:09:14.298Z,94256.50
2019-05-22T15:14:18.945Z,94252.82
2019-05-22T15:19:24.097Z,94247.09
2019-05-22T15:24:29.688Z,94241.22
2019-05-22T15:29:34.328Z,94237.48
2019-05-22T15:34:39.710Z,94232.56
2019-05-22T15:39:45.110Z,94230.73
2019-05-22T15:44:51.438Z,94226.50
2019-05-22T15:49:56.668Z,94229.05
2019-05-22T15:55:03.136Z,94237.66
2019-05-22T16:00:10.502Z,94230.28
2019-05-22T16:05:18.410Z,94231.66
2019-05-22T16:10:23.958Z,94231.80
2019-05-22T16:15:30.630Z,94246.03
2019-05-22T16:20:37.414Z,94282.33
2019-05-22T16:25:42.901Z,94270.70
2019-05-22T16:30:47.999Z,94258.83
2019-05-22T16:35:53.433Z,94263.93
2019-05-22T16:40:58.448Z,94299.52
2019-05-22T16:46:03.741Z,94285.08
2019-05-22T16:51:09.947Z,94296.01
2019-05-22T16:56:14.961Z,94312.51
2019-05-22T17:01:21.796Z,94303.87
2019-05-22T17:06:27.119Z,94299.36
2019-05-22T17:11:33.354Z,94311.54
2019-05-22T17:16:39.845Z,94315.05
2019-05-22T17:21:46.073Z,94308.53
2019-05-22T17:26:52.613Z,94308.02
2019-05-22T17:31:58.402Z,94306.82
2019-05-22T17:37:09.713Z,94311.27
2019-05-22T17:42:20.852Z,94303.92
2019-05-22T17:47:28.081Z,94302.70
2019-05-22T17:52:32.798Z,94283.99
2019-05-22T17:57:37.706Z,94289.70
2019-05-22T18:02:43.947Z,94314.22
2019-05-22T18:07:48.952Z,94314.22
2019-05-22T18:12:54.003Z,94334.98
2019-05-22T18:17:58.627Z,94369.01
2019-05-22T18:23:04.209Z,94369.01
2019-05-22T18:28:10.442Z,94399.80
2019-05-22T18:33:16.279Z,94417.78
2019-05-22T18:38:20.820Z,94415.10
2019-05-22T18:43:25.362Z,94401.70
2019-05-22T18:48:33.034Z,94373.31
2019-05-22T18:53:36.453Z,94366.52
2019-05-22T18:58:42.057Z,94372.84
2019-05-22T19:03:46.653Z,94373.08
2019-05-22T19:08:51.413Z,94371.55
2019-05-22T19:13:56.421Z,94384.00
2019-05-22T19:19:01.022Z,94404.26
2019-05-22T19:24:05.913Z,94410.03
2019-05-22T19:29:10.627Z,94420.80
2019-05-22T19:34:17.086Z,94428.93
2019-05-22T19:39:23.715Z,94453.84
2019-05-22T19:44:29.112Z,94456.34
2019-05-22T19:49:34.922Z,94430.70
2019-05-22T19:54:45.667Z,94407.56
2019-05-22T19:59:52.340Z,94418.34
2019-05-22T20:05:00.408Z,94408.13
2019-05-22T20:10:10.138Z,94404.38
2019-05-22T20:15:16.104Z,94403.02
2019-05-22T20:20:22.396Z,94399.70
2019-05-22T20:25:28.359Z,94396.64
2019-05-22T20:30:33.193Z,94400.77
2019-05-22T20:35:38.155Z,94405.53
2019-05-22T20:40:44.303Z,94404.23
2019-05-22T20:45:51.171Z,94406.87
2019-05-22T20:50:59.878Z,94408.03
2019-05-22T20:56:05.423Z,94413.53
2019-05-22T21:01:11.301Z,94405.48
2019-05-22T21:06:17.252Z,94408.72
2019-05-22T21:11:25.412Z,94415.44
2019-05-22T21:16:30.759Z,94410.80
2019-05-22T21:21:36.593Z,94411.63
2019-05-22T21:26:42.736Z,94419.50
2019-05-22T21:31:48.332Z,94426.67
2019-05-22T21:36:53.973Z,94426.52
2019-05-22T21:42:00.487Z,94429.31
2019-05-22T21:47:06.747Z,94451.91
2019-05-22T21:52:13.275Z,94464.51
2019-05-22T21:57:18.574Z,94467.78
2019-05-22T22:02:27.779Z,94471.93
2019-05-22T22:07:35.224Z,94466.41
2019-05-22T22:12:39.878Z,94458.44
2019-05-22T22:17:46.370Z,94456.34
2019-05-22T22:22:52.528Z,94455.89
2019-05-22T22:27:58.328Z,94458.46
2019-05-22T22:33:10.200Z,94450.22
2019-05-22T22:38:15.989Z,94453.16
2019-05-22T22:43:23.092Z,94457.23
2019-05-22T22:48:32.390Z,94450.88
2019-05-22T22:53:36.914Z,94449.88
2019-05-22T22:58:42.649Z,94450.88
2019-05-22T23:03:50.956Z,94458.23
2019-05-22T23:08:55.961Z,94460.80
2019-05-22T23:14:03.394Z,94461.52
2019-05-22T23:19:11.330Z,94458.71
2019-05-22T23:24:19.191Z,94451.85
2019-05-22T23:29:25.098Z,94443.32
2019-05-22T23:34:30.855Z,94437.58
2019-05-22T23:39:36.365Z,94438.27
2019-05-22T23:44:42.040Z,94443.44
2019-05-22T23:49:46.965Z,94444.45
2019-05-22T23:54:52.466Z,94437.72
2019-05-22T23:59:58.978Z,94436.89
